sensor_id;sensor_type;location;lat;lon;timestamp;pressure;altitude;pressure_sealevel;temperature
6454;BMP180;3260;52.438;13.502;2022-11-12T05:02:41;102453.00;;;6.40
6454;BMP180;3260;52.438;13.502;2022-11-12T05:05:09;102489.00;;;6.70
6454;BMP180;3260;52.438;13.502;2022-11-12T05:07:37;102504.00;;;6.90
6454;BMP180;3260;52.438;13.502;2022-11-12T05:10:07;102507.00;;;6.50
6454;BMP180;3260;52.438;13.502;2022-11-12T05:12:36;102497.00;;;6.70
6454;BMP180;3260;52.438;13.502;2022-11-12T05:15:05;102484.00;;;6.80
6454;BMP180;3260;52.438;13.502;2022-11-12T05:17:34;102518.00;;;7.00
6454;BMP180;3260;52.438;13.502;2022-11-12T05:20:05;102511.00;;;6.70
6454;BMP180;3260;52.438;13.502;2022-11-12T05:22:34;102516.00;;;6.10
6454;BMP180;3260;52.438;13.502;2022-11-12T05:25:14;102518.00;;;6.30
6454;BMP180;3260;52.438;13.502;2022-11-12T05:27:42;102516.00;;;6.60
6454;BMP180;3260;52.438;13.502;2022-11-12T05:32:39;102507.00;;;6.70
6454;BMP180;3260;52.438;13.502;2022-11-12T05:35:09;102509.00;;;6.70
6454;BMP180;3260;52.438;13.502;2022-11-12T05:37:37;102516.00;;;6.90
6454;BMP180;3260;52.438;13.502;2022-11-12T05:40:07;102510.00;;;6.20
6454;BMP180;3260;52.438;13.502;2022-11-12T05:42:35;102480.00;;;6.60
6454;BMP180;3260;52.438;13.502;2022-11-12T05:45:06;102516.00;;;6.90
6454;BMP180;3260;52.438;13.502;2022-11-12T05:47:34;102506.00;;;6.60
6454;BMP180;3260;52.438;13.502;2022-11-12T05:50:03;102513.00;;;6.70
6454;BMP180;3260;52.438;13.502;2022-11-12T05:52:32;102506.00;;;6.80
6454;BMP180;3260;52.438;13.502;2022-11-12T05:55:01;102500.00;;;6.30
6454;BMP180;3260;52.438;13.502;2022-11-12T05:57:29;102524.00;;;6.70
6454;BMP180;3260;52.438;13.502;2022-11-12T05:59:57;102517.00;;;6.80
6454;BMP180;3260;52.438;13.502;2022-11-12T06:02:25;102525.00;;;6.90
6454;BMP180;3260;52.438;13.502;2022-11-12T06:04:54;102534.00;;;6.90
6454;BMP180;3260;52.438;13.502;2022-11-12T06:07:22;102514.00;;;6.90
6454;BMP180;3260;52.438;13.502;2022-11-12T06:09:51;102513.00;;;6.80
6454;BMP180;3260;52.438;13.502;2022-11-12T06:12:20;102526.00;;;6.90
6454;BMP180;3260;52.438;13.502;2022-11-12T06:14:48;102521.00;;;6.80
6454;BMP180;3260;52.438;13.502;2022-11-12T06:17:16;102516.00;;;6.10
6454;BMP180;3260;52.438;13.502;2022-11-12T06:19:45;102519.00;;;6.60
6454;BMP180;3260;52.438;13.502;2022-11-12T06:22:13;102518.00;;;6.60
6454;BMP180;3260;52.438;13.502;2022-11-12T06:24:41;102520.00;;;6.70
6454;BMP180;3260;52.438;13.502;2022-11-12T06:27:10;102520.00;;;6.80
6454;BMP180;3260;52.438;13.502;2022-11-12T06:29:39;102519.00;;;6.80
6454;BMP180;3260;52.438;13.502;2022-11-12T06:32:07;102528.00;;;6.00
6454;BMP180;3260;52.438;13.502;2022-11-12T06:34:36;102521.00;;;6.40
6454;BMP180;3260;52.438;13.502;2022-11-12T06:37:04;102522.00;;;5.80
6454;BMP180;3260;52.438;13.502;2022-11-12T06:39:32;102533.00;;;5.80
6454;BMP180;3260;52.438;13.502;2022-11-12T06:42:01;102529.00;;;6.00
6454;BMP180;3260;52.438;13.502;2022-11-12T06:44:31;102541.00;;;6.00
6454;BMP180;3260;52.438;13.502;2022-11-12T06:47:00;102539.00;;;6.10
6454;BMP180;3260;52.438;13.502;2022-11-12T06:49:28;102546.00;;;6.10
6454;BMP180;3260;52.438;13.502;2022-11-12T06:51:56;102538.00;;;5.90
6454;BMP180;3260;52.438;13.502;2022-11-12T06:54:25;102538.00;;;6.30
6454;BMP180;3260;52.438;13.502;2022-11-12T06:56:53;102547.00;;;6.30
6454;BMP180;3260;52.438;13.502;2022-11-12T06:59:21;102561.00;;;6.50
6454;BMP180;3260;52.438;13.502;2022-11-12T07:01:50;102560.00;;;6.70
6454;BMP180;3260;52.438;13.502;2022-11-12T07:04:19;102558.00;;;6.60
6454;BMP180;3260;52.438;13.502;2022-11-12T07:06:48;102558.00;;;6.80
6454;BMP180;3260;52.438;13.502;2022-11-12T07:09:16;102558.00;;;7.10
6454;BMP180;3260;52.438;13.502;2022-11-12T07:11:44;102577.00;;;7.30
6454;BMP180;3260;52.438;13.502;2022-11-12T07:14:12;102566.00;;;7.30
6454;BMP180;3260;52.438;13.502;2022-11-12T07:16:40;102576.00;;;7.30
6454;BMP180;3260;52.438;13.502;2022-11-12T07:19:10;102567.00;;;7.40
6454;BMP180;3260;52.438;13.502;2022-11-12T07:21:39;102582.00;;;7.60
6454;BMP180;3260;52.438;13.502;2022-11-12T07:24:08;102577.00;;;7.20
6454;BMP180;3260;52.438;13.502;2022-11-12T07:26:37;102573.00;;;6.70
6454;BMP180;3260;52.438;13.502;2022-11-12T07:29:13;102577.00;;;7.20
6454;BMP180;3260;52.438;13.502;2022-11-12T07:32:01;102586.00;;;7.70
6454;BMP180;3260;52.438;13.502;2022-11-12T07:34:31;102585.00;;;8.00
6454;BMP180;3260;52.438;13.502;2022-11-12T07:36:59;102591.00;;;7.10
6454;BMP180;3260;52.438;13.502;2022-11-12T07:39:27;102596.00;;;7.00
6454;BMP180;3260;52.438;13.502;2022-11-12T07:41:56;102599.00;;;6.60
6454;BMP180;3260;52.438;13.502;2022-11-12T07:44:24;102597.00;;;6.70
6454;BMP180;3260;52.438;13.502;2022-11-12T07:46:52;102591.00;;;7.20
6454;BMP180;3260;52.438;13.502;2022-11-12T07:49:20;102596.00;;;6.90
6454;BMP180;3260;52.438;13.502;2022-11-12T07:51:50;102583.00;;;6.70
6454;BMP180;3260;52.438;13.502;2022-11-12T07:54:19;102593.00;;;7.60
6454;BMP180;3260;52.438;13.502;2022-11-12T07:56:47;102597.00;;;8.00
6454;BMP180;3260;52.438;13.502;2022-11-12T07:59:15;102587.00;;;8.10
6454;BMP180;3260;52.438;13.502;2022-11-12T08:01:43;102602.00;;;8.20
6454;BMP180;3260;52.438;13.502;2022-11-12T08:04:11;102608.00;;;8.20
6454;BMP180;3260;52.438;13.502;2022-11-12T08:06:40;102597.00;;;8.50
6454;BMP180;3260;52.438;13.502;2022-11-12T08:09:10;102593.00;;;8.70
6454;BMP180;3260;52.438;13.502;2022-11-12T08:11:38;102601.00;;;8.80
6454;BMP180;3260;52.438;13.502;2022-11-12T08:14:07;102609.00;;;9.10
6454;BMP180;3260;52.438;13.502;2022-11-12T08:16:36;102612.00;;;9.20
6454;BMP180;3260;52.438;13.502;2022-11-12T08:19:04;102606.00;;;9.50
6454;BMP180;3260;52.438;13.502;2022-11-12T08:21:33;102597.00;;;9.20
6454;BMP180;3260;52.438;13.502;2022-11-12T08:24:02;102582.00;;;8.80
6454;BMP180;3260;52.438;13.502;2022-11-12T08:26:32;102607.00;;;9.60
6454;BMP180;3260;52.438;13.502;2022-11-12T08:29:00;102611.00;;;9.80
6454;BMP180;3260;52.438;13.502;2022-11-12T08:31:34;102610.00;;;9.50
6454;BMP180;3260;52.438;13.502;2022-11-12T08:34:03;102601.00;;;9.40
6454;BMP180;3260;52.438;13.502;2022-11-12T08:36:38;102591.00;;;9.60
6454;BMP180;3260;52.438;13.502;2022-11-12T08:39:07;102598.00;;;10.30
6454;BMP180;3260;52.438;13.502;2022-11-12T08:41:37;102608.00;;;10.20
6454;BMP180;3260;52.438;13.502;2022-11-12T08:44:05;102606.00;;;9.80
6454;BMP180;3260;52.438;13.502;2022-11-12T08:46:34;102600.00;;;9.80
6454;BMP180;3260;52.438;13.502;2022-11-12T08:49:03;102601.00;;;10.10
6454;BMP180;3260;52.438;13.502;2022-11-12T08:51:31;102612.00;;;11.30
6454;BMP180;3260;52.438;13.502;2022-11-12T08:53:59;102612.00;;;11.60
6454;BMP180;3260;52.438;13.502;2022-11-12T08:56:27;102604.00;;;12.00
6454;BMP180;3260;52.438;13.502;2022-11-12T08:58:57;102606.00;;;12.20
6454;BMP180;3260;52.438;13.502;2022-11-12T09:01:30;102611.00;;;11.90
6454;BMP180;3260;52.438;13.502;2022-11-12T09:03:59;102618.00;;;12.00
6454;BMP180;3260;52.438;13.502;2022-11-12T09:06:28;102616.00;;;12.70
6454;BMP180;3260;52.438;13.502;2022-11-12T09:08:56;102618.00;;;13.00
6454;BMP180;3260;52.438;13.502;2022-11-12T09:11:24;102625.00;;;13.70
6454;BMP180;3260;52.438;13.502;2022-11-12T09:13:53;102621.00;;;13.80
6454;BMP180;3260;52.438;13.502;2022-11-12T09:16:22;102606.00;;;13.00
6454;BMP180;3260;52.438;13.502;2022-11-12T09:18:51;102612.00;;;13.60
6454;BMP180;3260;52.438;13.502;2022-11-12T09:21:19;102614.00;;;14.10
6454;BMP180;3260;52.438;13.502;2022-11-12T09:23:50;102618.00;;;14.50
6454;BMP180;3260;52.438;13.502;2022-11-12T09:26:18;102629.00;;;14.90
6454;BMP180;3260;52.438;13.502;2022-11-12T09:28:47;102633.00;;;14.70
6454;BMP180;3260;52.438;13.502;2022-11-12T09:31:15;102632.00;;;15.10
6454;BMP180;3260;52.438;13.502;2022-11-12T09:33:44;102629.00;;;15.20
6454;BMP180;3260;52.438;13.502;2022-11-12T09:36:12;102638.00;;;15.50
6454;BMP180;3260;52.438;13.502;2022-11-12T09:38:43;102639.00;;;15.70
6454;BMP180;3260;52.438;13.502;2022-11-12T09:41:22;102643.00;;;16.00
6454;BMP180;3260;52.438;13.502;2022-11-12T09:43:57;102638.00;;;15.50
6454;BMP180;3260;52.438;13.502;2022-11-12T09:46:39;102641.00;;;14.80
6454;BMP180;3260;52.438;13.502;2022-11-12T09:49:16;102639.00;;;14.60
6454;BMP180;3260;52.438;13.502;2022-11-12T09:51:50;102631.00;;;15.60
6454;BMP180;3260;52.438;13.502;2022-11-12T09:54:24;102638.00;;;14.90
6454;BMP180;3260;52.438;13.502;2022-11-12T09:56:53;102647.00;;;14.10
6454;BMP180;3260;52.438;13.502;2022-11-12T09:59:25;102643.00;;;15.60
6454;BMP180;3260;52.438;13.502;2022-11-12T10:02:02;102633.00;;;15.90
6454;BMP180;3260;52.438;13.502;2022-11-12T10:04:48;102639.00;;;16.10
6454;BMP180;3260;52.438;13.502;2022-11-12T10:07:35;102638.00;;;16.30
6454;BMP180;3260;52.438;13.502;2022-11-12T10:10:14;102642.00;;;16.80
6454;BMP180;3260;52.438;13.502;2022-11-12T10:13:03;102626.00;;;17.40
6454;BMP180;3260;52.438;13.502;2022-11-12T10:15:44;102622.00;;;17.30
6454;BMP180;3260;52.438;13.502;2022-11-12T10:19:08;102641.00;;;18.00
6454;BMP180;3260;52.438;13.502;2022-11-12T10:21:52;102639.00;;;18.50
6454;BMP180;3260;52.438;13.502;2022-11-12T10:24:22;102612.00;;;18.80
6454;BMP180;3260;52.438;13.502;2022-11-12T10:26:52;102631.00;;;18.50
6454;BMP180;3260;52.438;13.502;2022-11-12T10:29:28;102641.00;;;19.00
6454;BMP180;3260;52.438;13.502;2022-11-12T10:32:00;102623.00;;;19.20
6454;BMP180;3260;52.438;13.502;2022-11-12T10:34:29;102622.00;;;19.10
6454;BMP180;3260;52.438;13.502;2022-11-12T10:37:04;102642.00;;;20.20
6454;BMP180;3260;52.438;13.502;2022-11-12T10:39:36;102647.00;;;20.20
6454;BMP180;3260;52.438;13.502;2022-11-12T10:42:07;102630.00;;;20.30
6454;BMP180;3260;52.438;13.502;2022-11-12T10:44:37;102612.00;;;20.00
6454;BMP180;3260;52.438;13.502;2022-11-12T10:47:34;102650.00;;;21.30
6454;BMP180;3260;52.438;13.502;2022-11-12T10:50:20;102653.00;;;21.80
6454;BMP180;3260;52.438;13.502;2022-11-12T10:53:02;102629.00;;;22.10
6454;BMP180;3260;52.438;13.502;2022-11-12T10:55:33;102640.00;;;23.60
6454;BMP180;3260;52.438;13.502;2022-11-12T10:58:21;102657.00;;;23.90
6454;BMP180;3260;52.438;13.502;2022-11-12T11:00:59;102648.00;;;24.80
6454;BMP180;3260;52.438;13.502;2022-11-12T11:03:32;102644.00;;;24.30
6454;BMP180;3260;52.438;13.502;2022-11-12T11:06:03;102641.00;;;24.90
6454;BMP180;3260;52.438;13.502;2022-11-12T11:08:41;102624.00;;;24.90
6454;BMP180;3260;52.438;13.502;2022-11-12T11:11:24;102638.00;;;26.00
6454;BMP180;3260;52.438;13.502;2022-11-12T11:13:55;102643.00;;;26.70
6454;BMP180;3260;52.438;13.502;2022-11-12T11:16:26;102645.00;;;26.20
6454;BMP180;3260;52.438;13.502;2022-11-12T11:18:58;102641.00;;;27.70
6454;BMP180;3260;52.438;13.502;2022-11-12T11:22:00;102652.00;;;27.80
6454;BMP180;3260;52.438;13.502;2022-11-12T11:24:43;102645.00;;;28.10
6454;BMP180;3260;52.438;13.502;2022-11-12T11:27:30;102632.00;;;28.80
6454;BMP180;3260;52.438;13.502;2022-11-12T11:30:08;102652.00;;;28.30
6454;BMP180;3260;52.438;13.502;2022-11-12T11:33:21;102642.00;;;29.80
6454;BMP180;3260;52.438;13.502;2022-11-12T11:36:09;102631.00;;;28.10
6454;BMP180;3260;52.438;13.502;2022-11-12T11:38:57;102639.00;;;27.50
6454;BMP180;3260;52.438;13.502;2022-11-12T11:41:53;102639.00;;;28.30
6454;BMP180;3260;52.438;13.502;2022-11-12T11:44:37;102618.00;;;27.40
6454;BMP180;3260;52.438;13.502;2022-11-12T11:47:24;102631.00;;;28.30
6454;BMP180;3260;52.438;13.502;2022-11-12T11:50:25;102620.00;;;28.60
6454;BMP180;3260;52.438;13.502;2022-11-12T11:53:11;102630.00;;;29.20
6454;BMP180;3260;52.438;13.502;2022-11-12T11:55:52;102633.00;;;28.50
6454;BMP180;3260;52.438;13.502;2022-11-12T11:58:52;102630.00;;;29.50
6454;BMP180;3260;52.438;13.502;2022-11-12T12:01:33;102638.00;;;29.00
6454;BMP180;3260;52.438;13.502;2022-11-12T12:07:19;102619.00;;;28.80
6454;BMP180;3260;52.438;13.502;2022-11-12T12:09:59;102628.00;;;27.20
6454;BMP180;3260;52.438;13.502;2022-11-12T12:12:53;102627.00;;;28.40
6454;BMP180;3260;52.438;13.502;2022-11-12T12:15:45;102624.00;;;29.00
6454;BMP180;3260;52.438;13.502;2022-11-12T12:18:33;102624.00;;;29.00
6454;BMP180;3260;52.438;13.502;2022-11-12T12:21:08;102626.00;;;28.50
6454;BMP180;3260;52.438;13.502;2022-11-12T12:23:44;102605.00;;;28.20
6454;BMP180;3260;52.438;13.502;2022-11-12T12:26:17;102613.00;;;28.10
6454;BMP180;3260;52.438;13.502;2022-11-12T12:28:53;102617.00;;;27.70
6454;BMP180;3260;52.438;13.502;2022-11-12T12:31:30;102620.00;;;26.60
6454;BMP180;3260;52.438;13.502;2022-11-12T12:34:04;102616.00;;;28.70
6454;BMP180;3260;52.438;13.502;2022-11-12T12:36:37;102612.00;;;29.20
6454;BMP180;3260;52.438;13.502;2022-11-12T12:39:16;102627.00;;;29.30
6454;BMP180;3260;52.438;13.502;2022-11-12T12:41:53;102624.00;;;28.60
6454;BMP180;3260;52.438;13.502;2022-11-12T12:44:26;102625.00;;;28.70
6454;BMP180;3260;52.438;13.502;2022-11-12T12:47:13;102620.00;;;29.70
6454;BMP180;3260;52.438;13.502;2022-11-12T12:49:43;102617.00;;;29.10
6454;BMP180;3260;52.438;13.502;2022-11-12T12:52:13;102614.00;;;30.40
6454;BMP180;3260;52.438;13.502;2022-11-12T12:54:56;102616.00;;;29.10
6454;BMP180;3260;52.438;13.502;2022-11-12T12:57:34;102611.00;;;30.70
6454;BMP180;3260;52.438;13.502;2022-11-12T13:00:34;102606.00;;;29.40
6454;BMP180;3260;52.438;13.502;2022-11-12T13:03:07;102596.00;;;27.40
6454;BMP180;3260;52.438;13.502;2022-11-12T13:05:37;102592.00;;;28.80
6454;BMP180;3260;52.438;13.502;2022-11-12T13:08:11;102581.00;;;27.40
6454;BMP180;3260;52.438;13.502;2022-11-12T13:10:50;102585.00;;;28.60
6454;BMP180;3260;52.438;13.502;2022-11-12T13:13:29;102582.00;;;28.20
6454;BMP180;3260;52.438;13.502;2022-11-12T13:16:01;102582.00;;;28.20
6454;BMP180;3260;52.438;13.502;2022-11-12T13:19:00;102582.00;;;29.40
6454;BMP180;3260;52.438;13.502;2022-11-12T13:21:29;102593.00;;;31.10
6454;BMP180;3260;52.438;13.502;2022-11-12T13:24:00;102595.00;;;29.50
6454;BMP180;3260;52.438;13.502;2022-11-12T13:26:54;102591.00;;;27.80
6454;BMP180;3260;52.438;13.502;2022-11-12T13:29:39;102594.00;;;26.30
6454;BMP180;3260;52.438;13.502;2022-11-12T13:32:32;102592.00;;;26.10
6454;BMP180;3260;52.438;13.502;2022-11-12T13:35:32;102594.00;;;25.70
6454;BMP180;3260;52.438;13.502;2022-11-12T13:38:10;102596.00;;;26.10
6454;BMP180;3260;52.438;13.502;2022-11-12T13:40:43;102597.00;;;25.20
6454;BMP180;3260;52.438;13.502;2022-11-12T13:43:32;102598.00;;;25.00
6454;BMP180;3260;52.438;13.502;2022-11-12T13:46:26;102602.00;;;26.50
6454;BMP180;3260;52.438;13.502;2022-11-12T13:49:00;102592.00;;;26.20
6454;BMP180;3260;52.438;13.502;2022-11-12T13:51:38;102585.00;;;25.20
6454;BMP180;3260;52.438;13.502;2022-11-12T13:54:33;102584.00;;;28.80
6454;BMP180;3260;52.438;13.502;2022-11-12T13:57:26;102583.00;;;30.40
6454;BMP180;3260;52.438;13.502;2022-11-12T14:00:23;102557.00;;;28.60
6454;BMP180;3260;52.438;13.502;2022-11-12T14:02:56;102586.00;;;30.70
6454;BMP180;3260;52.438;13.502;2022-11-12T14:05:28;102599.00;;;28.10
6454;BMP180;3260;52.438;13.502;2022-11-12T14:08:30;102611.00;;;28.50
6454;BMP180;3260;52.438;13.502;2022-11-12T14:14:26;102600.00;;;29.20
6454;BMP180;3260;52.438;13.502;2022-11-12T14:17:15;102603.00;;;28.90
6454;BMP180;3260;52.438;13.502;2022-11-12T14:20:23;102599.00;;;28.80
6454;BMP180;3260;52.438;13.502;2022-11-12T14:22:53;102596.00;;;28.60
6454;BMP180;3260;52.438;13.502;2022-11-12T14:25:25;102585.00;;;28.00
6454;BMP180;3260;52.438;13.502;2022-11-12T14:27:55;102598.00;;;28.40
6454;BMP180;3260;52.438;13.502;2022-11-12T14:30:25;102589.00;;;27.90
6454;BMP180;3260;52.438;13.502;2022-11-12T14:33:00;102575.00;;;26.20
6454;BMP180;3260;52.438;13.502;2022-11-12T14:35:36;102582.00;;;25.30
6454;BMP180;3260;52.438;13.502;2022-11-12T14:38:13;102580.00;;;23.80
6454;BMP180;3260;52.438;13.502;2022-11-12T14:40:49;102585.00;;;23.10
6454;BMP180;3260;52.438;13.502;2022-11-12T14:43:31;102577.00;;;22.30
6454;BMP180;3260;52.438;13.502;2022-11-12T14:46:02;102582.00;;;21.30
6454;BMP180;3260;52.438;13.502;2022-11-12T14:48:37;102569.00;;;20.10
6454;BMP180;3260;52.438;13.502;2022-11-12T14:51:14;102570.00;;;18.60
6454;BMP180;3260;52.438;13.502;2022-11-12T14:53:48;102563.00;;;17.50
6454;BMP180;3260;52.438;13.502;2022-11-12T14:56:30;102566.00;;;17.60
6454;BMP180;3260;52.438;13.502;2022-11-12T14:59:03;102553.00;;;16.10
6454;BMP180;3260;52.438;13.502;2022-11-12T15:01:34;102556.00;;;16.00
6454;BMP180;3260;52.438;13.502;2022-11-12T15:04:22;102536.00;;;15.40
6454;BMP180;3260;52.438;13.502;2022-11-12T15:06:54;102546.00;;;16.60
6454;BMP180;3260;52.438;13.502;2022-11-12T15:09:33;102551.00;;;14.80
6454;BMP180;3260;52.438;13.502;2022-11-12T15:12:07;102553.00;;;15.70
6454;BMP180;3260;52.438;13.502;2022-11-12T15:14:37;102549.00;;;15.30
6454;BMP180;3260;52.438;13.502;2022-11-12T15:17:05;102549.00;;;15.70
6454;BMP180;3260;52.438;13.502;2022-11-12T15:19:34;102536.00;;;15.30
6454;BMP180;3260;52.438;13.502;2022-11-12T15:22:19;102542.00;;;15.10
6454;BMP180;3260;52.438;13.502;2022-11-12T15:24:47;102546.00;;;15.00
6454;BMP180;3260;52.438;13.502;2022-11-12T15:27:38;102534.00;;;15.00
6454;BMP180;3260;52.438;13.502;2022-11-12T15:30:20;102545.00;;;14.90
6454;BMP180;3260;52.438;13.502;2022-11-12T15:33:07;102543.00;;;14.70
6454;BMP180;3260;52.438;13.502;2022-11-12T15:35:37;102548.00;;;14.60
6454;BMP180;3260;52.438;13.502;2022-11-12T15:38:18;102536.00;;;14.30
6454;BMP180;3260;52.438;13.502;2022-11-12T15:40:54;102536.00;;;14.10
6454;BMP180;3260;52.438;13.502;2022-11-12T15:43:28;102543.00;;;14.00
6454;BMP180;3260;52.438;13.502;2022-11-12T15:45:57;102539.00;;;13.70
6454;BMP180;3260;52.438;13.502;2022-11-12T15:48:25;102528.00;;;13.00
6454;BMP180;3260;52.438;13.502;2022-11-12T15:50:54;102544.00;;;12.80
6454;BMP180;3260;52.438;13.502;2022-11-12T15:53:22;102532.00;;;13.30
6454;BMP180;3260;52.438;13.502;2022-11-12T15:55:51;102527.00;;;13.30
6454;BMP180;3260;52.438;13.502;2022-11-12T15:58:28;102552.00;;;13.30
6454;BMP180;3260;52.438;13.502;2022-11-12T16:00:57;102549.00;;;13.20
6454;BMP180;3260;52.438;13.502;2022-11-12T16:03:26;102540.00;;;13.10
6454;BMP180;3260;52.438;13.502;2022-11-12T16:05:55;102543.00;;;12.70
6454;BMP180;3260;52.438;13.502;2022-11-12T16:08:23;102550.00;;;12.80
6454;BMP180;3260;52.438;13.502;2022-11-12T16:10:52;102550.00;;;12.70
6454;BMP180;3260;52.438;13.502;2022-11-12T16:13:26;102544.00;;;12.40
6454;BMP180;3260;52.438;13.502;2022-11-12T16:15:58;102550.00;;;12.40
6454;BMP180;3260;52.438;13.502;2022-11-12T16:18:27;102539.00;;;12.60
6454;BMP180;3260;52.438;13.502;2022-11-12T16:20:55;102545.00;;;12.60
6454;BMP180;3260;52.438;13.502;2022-11-12T16:23:23;102545.00;;;12.40
6454;BMP180;3260;52.438;13.502;2022-11-12T16:25:53;102524.00;;;12.20
6454;BMP180;3260;52.438;13.502;2022-11-12T16:28:21;102526.00;;;12.40
6454;BMP180;3260;52.438;13.502;2022-11-12T16:30:50;102543.00;;;12.30
6454;BMP180;3260;52.438;13.502;2022-11-12T16:33:19;102551.00;;;12.00
6454;BMP180;3260;52.438;13.502;2022-11-12T16:35:48;102542.00;;;12.10
6454;BMP180;3260;52.438;13.502;2022-11-12T16:38:16;102537.00;;;11.70
6454;BMP180;3260;52.438;13.502;2022-11-12T16:40:45;102548.00;;;11.90
6454;BMP180;3260;52.438;13.502;2022-11-12T16:43:13;102553.00;;;11.90
6454;BMP180;3260;52.438;13.502;2022-11-12T16:45:43;102537.00;;;11.80
6454;BMP180;3260;52.438;13.502;2022-11-12T16:48:17;102548.00;;;11.70
6454;BMP180;3260;52.438;13.502;2022-11-12T16:50:47;102534.00;;;11.20
6454;BMP180;3260;52.438;13.502;2022-11-12T16:53:16;102541.00;;;11.40
6454;BMP180;3260;52.438;13.502;2022-11-12T16:55:44;102536.00;;;11.50
6454;BMP180;3260;52.438;13.502;2022-11-12T16:58:13;102541.00;;;11.50
6454;BMP180;3260;52.438;13.502;2022-11-12T17:00:45;102543.00;;;11.40
6454;BMP180;3260;52.438;13.502;2022-11-12T17:03:13;102533.00;;;11.20
6454;BMP180;3260;52.438;13.502;2022-11-12T17:05:42;102526.00;;;10.20
6454;BMP180;3260;52.438;13.502;2022-11-12T17:08:11;102546.00;;;10.80
6454;BMP180;3260;52.438;13.502;2022-11-12T17:10:40;102541.00;;;10.90
6454;BMP180;3260;52.438;13.502;2022-11-12T17:13:11;102543.00;;;10.70
6454;BMP180;3260;52.438;13.502;2022-11-12T17:15:40;102543.00;;;10.90
6454;BMP180;3260;52.438;13.502;2022-11-12T17:18:08;102532.00;;;10.80
6454;BMP180;3260;52.438;13.502;2022-11-12T17:20:37;102538.00;;;10.90
6454;BMP180;3260;52.438;13.502;2022-11-12T17:23:07;102530.00;;;10.80
6454;BMP180;3260;52.438;13.502;2022-11-12T17:25:36;102530.00;;;10.80
6454;BMP180;3260;52.438;13.502;2022-11-12T17:28:04;102534.00;;;10.80
6454;BMP180;3260;52.438;13.502;2022-11-12T17:30:33;102525.00;;;10.50
6454;BMP180;3260;52.438;13.502;2022-11-12T17:33:01;102528.00;;;10.70
6454;BMP180;3260;52.438;13.502;2022-11-12T17:35:32;102533.00;;;10.40
6454;BMP180;3260;52.438;13.502;2022-11-12T17:38:00;102514.00;;;10.30
6454;BMP180;3260;52.438;13.502;2022-11-12T17:40:28;102528.00;;;9.90
6454;BMP180;3260;52.438;13.502;2022-11-12T17:42:58;102519.00;;;10.50
6454;BMP180;3260;52.438;13.502;2022-11-12T17:45:26;102525.00;;;10.50
6454;BMP180;3260;52.438;13.502;2022-11-12T17:47:54;102523.00;;;10.50
6454;BMP180;3260;52.438;13.502;2022-11-12T17:50:22;102520.00;;;10.50
6454;BMP180;3260;52.438;13.502;2022-11-12T17:52:51;102513.00;;;10.40
6454;BMP180;3260;52.438;13.502;2022-11-12T17:55:19;102533.00;;;10.40
6454;BMP180;3260;52.438;13.502;2022-11-12T17:57:48;102526.00;;;10.30
6454;BMP180;3260;52.438;13.502;2022-11-12T18:00:18;102531.00;;;10.40
6454;BMP180;3260;52.438;13.502;2022-11-12T18:02:46;102529.00;;;10.40
6454;BMP180;3260;52.438;13.502;2022-11-12T18:05:14;102532.00;;;10.30
6454;BMP180;3260;52.438;13.502;2022-11-12T18:07:43;102531.00;;;10.30
6454;BMP180;3260;52.438;13.502;2022-11-12T18:10:11;102529.00;;;10.10
6454;BMP180;3260;52.438;13.502;2022-11-12T18:12:45;102522.00;;;9.60
6454;BMP180;3260;52.438;13.502;2022-11-12T18:15:13;102519.00;;;9.90
6454;BMP180;3260;52.438;13.502;2022-11-12T18:17:44;102523.00;;;10.10
6454;BMP180;3260;52.438;13.502;2022-11-12T18:20:12;102521.00;;;10.00
6454;BMP180;3260;52.438;13.502;2022-11-12T18:22:41;102523.00;;;10.00
6454;BMP180;3260;52.438;13.502;2022-11-12T18:25:11;102523.00;;;9.90
6454;BMP180;3260;52.438;13.502;2022-11-12T18:27:40;102528.00;;;9.90
6454;BMP180;3260;52.438;13.502;2022-11-12T18:30:09;102528.00;;;9.90
6454;BMP180;3260;52.438;13.502;2022-11-12T18:32:46;102526.00;;;9.90
6454;BMP180;3260;52.438;13.502;2022-11-12T18:35:14;102523.00;;;9.90
6454;BMP180;3260;52.438;13.502;2022-11-12T18:37:43;102520.00;;;9.80
6454;BMP180;3260;52.438;13.502;2022-11-12T18:40:11;102516.00;;;9.90
6454;BMP180;3260;52.438;13.502;2022-11-12T18:42:40;102525.00;;;9.80
6454;BMP180;3260;52.438;13.502;2022-11-12T18:45:09;102523.00;;;9.80
6454;BMP180;3260;52.438;13.502;2022-11-12T18:47:38;102528.00;;;9.80
6454;BMP180;3260;52.438;13.502;2022-11-12T18:50:08;102532.00;;;9.70
6454;BMP180;3260;52.438;13.502;2022-11-12T18:52:36;102535.00;;;9.70
6454;BMP180;3260;52.438;13.502;2022-11-12T18:55:06;102531.00;;;9.60
6454;BMP180;3260;52.438;13.502;2022-11-12T18:57:34;102528.00;;;9.70
6454;BMP180;3260;52.438;13.502;2022-11-12T19:00:04;102531.00;;;9.70
6454;BMP180;3260;52.438;13.502;2022-11-12T19:02:32;102520.00;;;9.70
6454;BMP180;3260;52.438;13.502;2022-11-12T19:05:00;102532.00;;;9.80
6454;BMP180;3260;52.438;13.502;2022-11-12T19:07:30;102522.00;;;9.70
6454;BMP180;3260;52.438;13.502;2022-11-12T19:09:58;102525.00;;;9.80
6454;BMP180;3260;52.438;13.502;2022-11-12T19:12:41;102525.00;;;9.80
6454;BMP180;3260;52.438;13.502;2022-11-12T19:15:10;102526.00;;;9.80
6454;BMP180;3260;52.438;13.502;2022-11-12T19:17:38;102523.00;;;9.90
6454;BMP180;3260;52.438;13.502;2022-11-12T19:20:08;102524.00;;;9.80
6454;BMP180;3260;52.438;13.502;2022-11-12T19:22:38;102527.00;;;9.50
6454;BMP180;3260;52.438;13.502;2022-11-12T19:25:07;102526.00;;;9.90
6454;BMP180;3260;52.438;13.502;2022-11-12T19:27:36;102523.00;;;9.70
6454;BMP180;3260;52.438;13.502;2022-11-12T19:30:05;102535.00;;;10.00
6454;BMP180;3260;52.438;13.502;2022-11-12T19:32:34;102538.00;;;10.10
6454;BMP180;3260;52.438;13.502;2022-11-12T19:35:02;102531.00;;;9.50
6454;BMP180;3260;52.438;13.502;2022-11-12T19:37:31;102531.00;;;9.90
6454;BMP180;3260;52.438;13.502;2022-11-12T19:40:02;102527.00;;;10.00
6454;BMP180;3260;52.438;13.502;2022-11-12T19:42:31;102526.00;;;10.00
6454;BMP180;3260;52.438;13.502;2022-11-12T19:45:00;102537.00;;;10.30
6454;BMP180;3260;52.438;13.502;2022-11-12T19:47:28;102533.00;;;9.70
6454;BMP180;3260;52.438;13.502;2022-11-12T19:49:56;102526.00;;;9.40
6454;BMP180;3260;52.438;13.502;2022-11-12T19:52:25;102531.00;;;10.00
6454;BMP180;3260;52.438;13.502;2022-11-12T19:54:53;102531.00;;;9.90
6454;BMP180;3260;52.438;13.502;2022-11-12T19:57:23;102537.00;;;10.20
6454;BMP180;3260;52.438;13.502;2022-11-12T19:59:52;102528.00;;;10.20